createdAt,value
2017-01-24T00:00:08.352Z,75.08
2017-01-24T00:01:08.135Z,75.41
2017-01-24T00:02:07.687Z,76.56
2017-01-24T00:03:08.323Z,75.78
2017-01-24T00:04:07.879Z,75.52
2017-01-24T00:05:08.516Z,76.13
2017-01-24T00:06:08.012Z,75.93
2017-01-24T00:07:08.167Z,75.54
2017-01-24T00:08:07.755Z,74.67
2017-01-24T00:09:08.375Z,74.72
2017-01-24T00:10:07.918Z,75.01
2017-01-24T00:11:08.579Z,74.51
2017-01-24T00:12:08.283Z,74.50
2017-01-24T00:13:07.786Z,74.05
2017-01-24T00:14:08.339Z,74.34
2017-01-24T00:15:07.885Z,74.51
2017-01-24T00:16:08.463Z,74.34
2017-01-24T00:17:08.045Z,74.33
2017-01-24T00:18:07.824Z,74.23
2017-01-24T00:19:08.376Z,74.03
2017-01-24T00:20:07.999Z,73.75
2017-01-24T00:21:07.544Z,74.07
2017-01-24T00:22:08.096Z,74.02
2017-01-24T00:23:07.924Z,74.32
2017-01-24T00:24:08.447Z,74.25
2017-01-24T00:25:08.018Z,73.92
2017-01-24T00:26:07.496Z,74.14
2017-01-24T00:27:08.002Z,74.23
2017-01-24T00:28:07.520Z,74.06
2017-01-24T00:29:08.089Z,74.28
2017-01-24T00:30:07.653Z,74.05
2017-01-24T00:31:08.187Z,74.03
2017-01-24T00:32:07.762Z,73.87
2017-01-24T00:33:08.346Z,74.00
2017-01-24T00:34:07.906Z,73.71
2017-01-24T00:35:08.519Z,74.12
2017-01-24T00:36:08.062Z,72.81
2017-01-24T00:37:07.606Z,72.03
2017-01-24T00:38:08.167Z,73.47
2017-01-24T00:39:07.658Z,73.57
2017-01-24T00:40:08.285Z,73.67
2017-01-24T00:41:07.802Z,73.64
2017-01-24T00:42:08.335Z,74.19
2017-01-24T00:43:07.808Z,74.83
2017-01-24T00:44:08.350Z,74.61
2017-01-24T00:45:07.827Z,75.89
2017-01-24T00:46:08.365Z,75.88
2017-01-24T00:47:07.913Z,75.38
2017-01-24T00:48:08.505Z,75.43
2017-01-24T00:49:08.065Z,75.42
2017-01-24T00:50:07.942Z,73.52
2017-01-24T00:51:07.513Z,73.15
2017-01-24T00:52:07.982Z,74.70
2017-01-24T00:53:07.604Z,75.47
2017-01-24T00:54:08.173Z,75.09
2017-01-24T00:55:07.666Z,75.24
2017-01-24T00:56:08.216Z,75.78
2017-01-24T00:57:07.719Z,76.40
2017-01-24T00:58:08.232Z,76.17
2017-01-24T00:59:07.738Z,75.74
2017-01-24T01:00:08.271Z,75.86
2017-01-24T01:01:08.122Z,76.28
2017-01-24T01:02:07.773Z,76.52
2017-01-24T01:03:07.788Z,76.88
2017-01-24T01:04:08.269Z,77.16
2017-01-24T01:05:07.833Z,77.58
2017-01-24T01:06:08.346Z,77.46
2017-01-24T01:07:08.438Z,76.88
2017-01-24T01:08:07.953Z,77.08
2017-01-24T01:09:07.738Z,78.16
2017-01-24T01:10:08.503Z,77.68
2017-01-24T01:11:07.962Z,77.37
2017-01-24T01:12:08.935Z,77.43
2017-01-24T01:13:08.629Z,78.15
2017-01-24T01:14:08.419Z,78.38
2017-01-24T01:15:08.053Z,77.51
2017-01-24T01:16:08.401Z,77.20
2017-01-24T01:17:08.422Z,77.09
2017-01-24T01:18:08.024Z,77.23
2017-01-24T01:19:07.725Z,78.06
2017-01-24T01:20:08.284Z,78.17
2017-01-24T01:21:07.779Z,78.15
2017-01-24T01:22:08.245Z,77.54
2017-01-24T01:23:08.252Z,76.51
2017-01-24T01:24:08.660Z,76.77
2017-01-24T01:25:08.200Z,77.06
2017-01-24T01:26:07.874Z,76.77
2017-01-24T01:27:08.479Z,76.75
2017-01-24T01:28:08.016Z,76.48
2017-01-24T01:29:07.477Z,76.40
2017-01-24T01:30:08.046Z,77.36
2017-01-24T01:31:07.576Z,77.60
2017-01-24T01:32:08.093Z,77.73
2017-01-24T01:33:07.615Z,78.29
2017-01-24T01:34:08.053Z,78.22
2017-01-24T01:35:08.259Z,78.40
2017-01-24T01:36:08.002Z,78.83
2017-01-24T01:37:07.430Z,79.44
2017-01-24T01:38:08.044Z,79.35
2017-01-24T01:39:07.519Z,78.76
2017-01-24T01:40:08.283Z,78.46
2017-01-24T01:41:07.917Z,78.75
2017-01-24T01:42:08.421Z,78.91
2017-01-24T01:43:08.239Z,78.30
2017-01-24T01:44:07.997Z,78.07
2017-01-24T01:45:07.506Z,78.47
2017-01-24T01:46:08.152Z,78.44
2017-01-24T01:47:07.638Z,78.62
2017-01-24T01:48:08.193Z,80.60
2017-01-24T01:49:07.773Z,80.43
2017-01-24T01:50:08.332Z,80.92
2017-01-24T01:51:07.913Z,80.40
2017-01-24T01:52:08.630Z,79.74
2017-01-24T01:53:08.267Z,79.92
2017-01-24T01:54:07.891Z,79.48
2017-01-24T01:55:08.453Z,79.30
2017-01-24T01:56:08.073Z,79.57
2017-01-24T01:57:07.858Z,79.52
2017-01-24T01:58:08.366Z,79.69
2017-01-24T01:59:07.600Z,78.96
2017-01-24T02:00:08.185Z,78.28
2017-01-24T02:01:07.914Z,78.22
2017-01-24T02:02:08.515Z,77.89
2017-01-24T02:03:08.075Z,77.80
2017-01-24T02:04:07.833Z,78.82
2017-01-24T02:05:08.445Z,78.43
2017-01-24T02:06:08.194Z,78.30
2017-01-24T02:07:07.934Z,77.46
2017-01-24T02:08:08.553Z,77.81
2017-01-24T02:09:08.082Z,79.20
2017-01-24T02:10:08.104Z,78.64
2017-01-24T02:11:07.639Z,78.61
2017-01-24T02:12:08.339Z,78.91
2017-01-24T02:13:07.822Z,78.62
2017-01-24T02:14:08.397Z,78.88
2017-01-24T02:15:08.021Z,78.41
2017-01-24T02:16:07.942Z,78.30
2017-01-24T02:17:07.902Z,78.41
2017-01-24T02:18:08.587Z,78.45
2017-01-24T02:19:08.700Z,78.25
2017-01-24T02:20:08.569Z,79.39
2017-01-24T02:21:08.129Z,78.81
2017-01-24T02:22:08.185Z,78.41
2017-01-24T02:23:07.706Z,78.12
2017-01-24T02:24:08.261Z,77.29
2017-01-24T02:25:07.779Z,78.62
2017-01-24T02:26:08.623Z,78.17
2017-01-24T02:27:08.402Z,79.21
2017-01-24T02:28:07.958Z,78.42
2017-01-24T02:29:07.508Z,77.79
2017-01-24T02:30:08.067Z,77.81
2017-01-24T02:31:07.612Z,77.90
2017-01-24T02:32:08.209Z,78.26
2017-01-24T02:33:07.681Z,77.98
2017-01-24T02:34:08.244Z,79.06
2017-01-24T02:35:08.127Z,79.26
2017-01-24T02:36:07.663Z,78.45
2017-01-24T02:37:08.188Z,79.19
2017-01-24T02:38:07.677Z,78.38
2017-01-24T02:39:08.176Z,78.42
2017-01-24T02:40:07.845Z,79.47
2017-01-24T02:41:08.436Z,79.42
2017-01-24T02:42:08.031Z,79.05
2017-01-24T02:43:07.588Z,78.53
2017-01-24T02:44:08.080Z,77.68
2017-01-24T02:45:07.613Z,77.36
2017-01-24T02:46:08.135Z,77.76
2017-01-24T02:47:07.623Z,76.99
2017-01-24T02:48:08.232Z,78.49
2017-01-24T02:49:08.091Z,77.88
2017-01-24T02:50:07.779Z,77.35
2017-01-24T02:51:08.540Z,77.73
2017-01-24T02:52:08.415Z,78.42
2017-01-24T02:53:08.065Z,78.06
2017-01-24T02:54:07.543Z,79.04
2017-01-24T02:55:08.042Z,79.50
2017-01-24T02:56:07.632Z,78.89
2017-01-24T02:57:08.153Z,79.01
2017-01-24T02:58:07.732Z,79.29
2017-01-24T02:59:08.201Z,80.56
2017-01-24T03:00:07.687Z,80.14
2017-01-24T03:01:08.246Z,79.65
2017-01-24T03:02:07.728Z,79.99
2017-01-24T03:03:08.262Z,79.42
2017-01-24T03:04:08.067Z,79.52
2017-01-24T03:05:07.691Z,81.08
2017-01-24T03:06:08.324Z,81.25
2017-01-24T03:07:07.881Z,81.19
2017-01-24T03:08:08.446Z,80.13
2017-01-24T03:09:08.243Z,79.67
2017-01-24T03:10:07.863Z,79.92
2017-01-24T03:11:08.761Z,82.24
2017-01-24T03:12:08.710Z,81.49
2017-01-24T03:13:08.271Z,80.21
2017-01-24T03:14:07.829Z,80.24
2017-01-24T03:15:09.489Z,79.76
2017-01-24T03:16:07.981Z,79.39
2017-01-24T03:17:07.652Z,80.73
2017-01-24T03:18:08.198Z,80.35
2017-01-24T03:19:07.708Z,79.74
2017-01-24T03:20:08.392Z,79.41
2017-01-24T03:21:07.992Z,79.74
2017-01-24T03:22:07.439Z,78.86
2017-01-24T03:23:08.083Z,78.94
2017-01-24T03:24:08.052Z,78.62
2017-01-24T03:25:07.897Z,78.25
2017-01-24T03:26:08.591Z,78.09
2017-01-24T03:27:08.164Z,78.40
2017-01-24T03:28:07.937Z,78.75
2017-01-24T03:29:07.470Z,78.69
2017-01-24T03:30:07.942Z,78.30
2017-01-24T03:31:07.713Z,78.21
2017-01-24T03:32:08.309Z,79.96
2017-01-24T03:33:07.855Z,79.60
2017-01-24T03:34:08.584Z,80.62
2017-01-24T03:35:08.291Z,78.44
2017-01-24T03:36:07.790Z,78.72
2017-01-24T03:37:08.265Z,77.70
2017-01-24T03:38:08.201Z,76.97
2017-01-24T03:39:07.722Z,76.96
2017-01-24T03:40:08.231Z,77.59
2017-01-24T03:41:07.752Z,77.08
2017-01-24T03:42:08.294Z,77.33
2017-01-24T03:43:07.792Z,78.19
2017-01-24T03:44:08.313Z,77.24
2017-01-24T03:45:07.740Z,77.62
2017-01-24T03:46:08.224Z,78.88
2017-01-24T03:47:07.770Z,78.83
2017-01-24T03:48:08.337Z,78.80
2017-01-24T03:49:08.227Z,78.38
2017-01-24T03:50:07.712Z,77.57
2017-01-24T03:51:08.333Z,78.26
2017-01-24T03:52:07.988Z,78.30
2017-01-24T03:53:07.453Z,78.29
2017-01-24T03:54:08.233Z,79.96
2017-01-24T03:55:07.889Z,81.13
2017-01-24T03:56:08.631Z,80.49
2017-01-24T03:57:08.291Z,79.76
2017-01-24T03:58:08.116Z,78.64
2017-01-24T03:59:07.853Z,78.00
2017-01-24T04:00:08.423Z,77.98
2017-01-24T04:01:07.921Z,77.08
2017-01-24T04:02:08.553Z,77.05
2017-01-24T04:03:08.081Z,77.98
2017-01-24T04:04:07.723Z,78.33
2017-01-24T04:05:08.283Z,78.05
2017-01-24T04:06:07.771Z,78.49
2017-01-24T04:07:08.319Z,78.97
2017-01-24T04:08:08.042Z,79.53
2017-01-24T04:09:07.898Z,79.80
2017-01-24T04:10:08.538Z,79.52
2017-01-24T04:11:07.799Z,78.79
2017-01-24T04:12:08.397Z,78.93
2017-01-24T04:13:07.833Z,79.29
2017-01-24T04:14:08.557Z,79.23
2017-01-24T04:15:08.126Z,78.53
2017-01-24T04:16:07.621Z,77.76
2017-01-24T04:17:08.320Z,78.84
2017-01-24T04:18:07.764Z,81.09
2017-01-24T04:19:08.264Z,80.32
2017-01-24T04:20:07.743Z,80.06
2017-01-24T04:21:08.236Z,79.13
2017-01-24T04:22:07.871Z,79.01
2017-01-24T04:23:08.385Z,78.51
2017-01-24T04:24:07.912Z,78.42
2017-01-24T04:25:08.480Z,77.66
2017-01-24T04:26:08.050Z,78.46
2017-01-24T04:27:07.629Z,78.74
2017-01-24T04:28:08.481Z,79.09
2017-01-24T04:29:08.365Z,78.75
2017-01-24T04:30:08.022Z,79.43
2017-01-24T04:31:07.488Z,78.90
2017-01-24T04:32:08.042Z,78.42
2017-01-24T04:33:07.569Z,77.52
2017-01-24T04:34:08.100Z,78.04
2017-01-24T04:35:07.851Z,79.49
2017-01-24T04:36:08.422Z,78.74
2017-01-24T04:37:08.002Z,79.41
2017-01-24T04:38:07.514Z,79.06
2017-01-24T04:39:08.283Z,78.69
2017-01-24T04:40:08.079Z,79.72
2017-01-24T04:41:07.574Z,79.44
2017-01-24T04:42:08.158Z,79.19
2017-01-24T04:43:07.703Z,78.75
2017-01-24T04:44:08.293Z,79.54
2017-01-24T04:45:07.818Z,79.07
2017-01-24T04:46:08.331Z,78.94
2017-01-24T04:47:08.032Z,78.62
2017-01-24T04:48:07.599Z,78.43
2017-01-24T04:49:08.201Z,78.93
2017-01-24T04:50:07.739Z,78.74
2017-01-24T04:51:27.881Z,78.41
2017-01-24T04:52:08.412Z,78.65
2017-01-24T04:53:07.959Z,77.91
2017-01-24T04:54:07.502Z,78.29
2017-01-24T04:55:08.013Z,78.17
2017-01-24T04:56:07.488Z,78.91
2017-01-24T04:57:08.059Z,77.59
2017-01-24T04:58:07.675Z,77.62
2017-01-24T04:59:08.450Z,78.34
2017-01-24T05:00:08.001Z,79.62
2017-01-24T05:01:07.543Z,79.90
2017-01-24T05:02:08.463Z,79.64
2017-01-24T05:03:07.988Z,79.19
2017-01-24T05:04:07.535Z,79.19
2017-01-24T05:05:08.051Z,79.56
2017-01-24T05:06:07.810Z,81.07
2017-01-24T05:07:08.295Z,81.96
2017-01-24T05:08:08.087Z,81.31
2017-01-24T05:09:07.743Z,80.04
2017-01-24T05:10:08.358Z,79.47
2017-01-24T05:11:07.897Z,78.52
2017-01-24T05:12:08.870Z,79.42
2017-01-24T05:13:08.495Z,78.75
2017-01-24T05:14:08.574Z,79.54
2017-01-24T05:15:07.480Z,79.36
2017-01-24T05:16:08.036Z,79.07
2017-01-24T05:17:07.673Z,79.52
2017-01-24T05:18:08.258Z,80.56
2017-01-24T05:19:07.819Z,81.09
2017-01-24T05:20:08.399Z,80.92
2017-01-24T05:21:07.841Z,80.37
2017-01-24T05:22:08.340Z,79.44
2017-01-24T05:23:08.032Z,79.49
2017-01-24T05:24:07.683Z,78.75
2017-01-24T05:25:11.194Z,78.84
2017-01-24T05:26:07.784Z,77.86
2017-01-24T05:27:08.384Z,77.99
2017-01-24T05:28:07.983Z,77.86
2017-01-24T05:29:07.544Z,77.95
2017-01-24T05:30:08.104Z,79.63
2017-01-24T05:31:07.595Z,79.41
2017-01-24T05:32:08.342Z,79.74
2017-01-24T05:33:07.917Z,80.09
2017-01-24T05:34:09.368Z,79.24
2017-01-24T05:35:08.143Z,79.01
2017-01-24T05:36:07.734Z,78.83
2017-01-24T05:37:08.316Z,78.44
2017-01-24T05:38:07.907Z,78.77
2017-01-24T05:39:08.473Z,78.50
2017-01-24T05:40:08.011Z,77.47
2017-01-24T05:41:07.611Z,79.14
2017-01-24T05:42:08.244Z,79.30
2017-01-24T05:43:07.815Z,79.40
2017-01-24T05:44:08.585Z,78.98
2017-01-24T05:45:08.305Z,79.58
2017-01-24T05:46:07.867Z,79.02
2017-01-24T05:47:08.425Z,79.50
2017-01-24T05:48:07.723Z,79.53
2017-01-24T05:49:08.293Z,80.31
2017-01-24T05:50:07.783Z,79.61
2017-01-24T05:51:08.374Z,79.22
2017-01-24T05:52:27.545Z,79.23
2017-01-24T05:53:08.061Z,78.97
2017-01-24T05:54:07.753Z,77.91
2017-01-24T05:55:08.369Z,77.98
2017-01-24T05:56:07.939Z,77.27
2017-01-24T05:57:07.501Z,77.39
2017-01-24T05:58:08.054Z,77.70
2017-01-24T05:59:07.641Z,78.29
2017-01-24T06:00:08.164Z,78.32
2017-01-24T06:01:07.800Z,78.71
2017-01-24T06:02:08.363Z,78.74
2017-01-24T06:03:08.043Z,78.49
2017-01-24T06:04:07.555Z,77.79
2017-01-24T06:05:08.204Z,78.27
2017-01-24T06:06:07.653Z,78.19
2017-01-24T06:07:07.572Z,78.55
2017-01-24T06:08:08.386Z,78.24
2017-01-24T06:09:07.927Z,77.82
2017-01-24T06:10:08.442Z,77.43
2017-01-24T06:11:07.915Z,77.22
2017-01-24T06:12:08.338Z,77.11
2017-01-24T06:13:08.438Z,77.21
2017-01-24T06:14:08.054Z,76.90
2017-01-24T06:15:07.740Z,77.23
2017-01-24T06:16:08.288Z,77.26
2017-01-24T06:17:07.917Z,78.08
2017-01-24T06:18:08.468Z,78.52
2017-01-24T06:19:08.095Z,77.95
2017-01-24T06:20:07.609Z,77.45
2017-01-24T06:21:08.242Z,77.30
2017-01-24T06:22:07.711Z,76.75
2017-01-24T06:23:08.290Z,76.86
2017-01-24T06:24:07.812Z,77.89
2017-01-24T06:25:08.443Z,76.99
2017-01-24T06:26:08.890Z,78.29
2017-01-24T06:27:08.453Z,78.75
2017-01-24T06:28:08.255Z,78.88
2017-01-24T06:29:07.874Z,78.68
2017-01-24T06:30:08.427Z,76.97
2017-01-24T06:31:07.952Z,76.44
2017-01-24T06:32:07.498Z,77.26
2017-01-24T06:33:08.092Z,77.23
2017-01-24T06:34:07.674Z,77.59
2017-01-24T06:35:08.300Z,77.76
2017-01-24T06:36:07.769Z,78.07
2017-01-24T06:37:08.296Z,77.63
2017-01-24T06:38:08.052Z,76.87
2017-01-24T06:39:07.647Z,76.43
2017-01-24T06:40:08.251Z,76.56
2017-01-24T06:41:07.874Z,76.48
2017-01-24T06:42:08.405Z,76.75
2017-01-24T06:43:07.855Z,76.63
2017-01-24T06:44:08.447Z,76.50
2017-01-24T06:45:07.991Z,77.13
2017-01-24T06:46:07.822Z,77.43
2017-01-24T06:47:08.383Z,76.92
2017-01-24T06:48:07.857Z,77.07
2017-01-24T06:49:08.483Z,77.95
2017-01-24T06:50:08.099Z,78.52
2017-01-24T06:51:07.861Z,78.34
2017-01-24T06:52:08.492Z,78.14
2017-01-24T06:53:08.062Z,78.43
2017-01-24T06:54:07.593Z,78.62
2017-01-24T06:55:08.155Z,78.83
2017-01-24T06:56:07.716Z,79.13
2017-01-24T06:57:08.294Z,79.01
2017-01-24T06:58:08.187Z,79.13
2017-01-24T06:59:07.676Z,79.36
2017-01-24T07:00:08.360Z,78.69
2017-01-24T07:01:07.973Z,78.46
2017-01-24T07:02:07.665Z,78.37
2017-01-24T07:03:08.234Z,78.73
2017-01-24T07:04:08.687Z,78.51
2017-01-24T07:05:08.290Z,78.66
2017-01-24T07:06:07.802Z,78.01
2017-01-24T07:07:08.422Z,78.00
2017-01-24T07:08:07.973Z,77.75
2017-01-24T07:09:07.659Z,77.43
2017-01-24T07:10:08.271Z,77.64
2017-01-24T07:11:07.816Z,77.96
2017-01-24T07:12:08.390Z,77.35
2017-01-24T07:13:07.926Z,77.82
2017-01-24T07:14:07.488Z,78.01
2017-01-24T07:15:08.040Z,76.95
2017-01-24T07:16:07.633Z,77.57
2017-01-24T07:17:08.357Z,77.39
2017-01-24T07:18:07.950Z,77.39
2017-01-24T07:19:07.796Z,78.44
2017-01-24T07:20:08.459Z,78.54
2017-01-24T07:22:08.475Z,78.54
2017-01-24T07:23:08.054Z,79.08
2017-01-24T07:24:07.560Z,78.13
2017-01-24T07:25:08.198Z,77.86
2017-01-24T07:26:07.766Z,77.19
2017-01-24T07:27:08.325Z,77.45
2017-01-24T07:28:07.828Z,77.69
2017-01-24T07:29:08.519Z,76.81
2017-01-24T07:30:07.989Z,77.26
2017-01-24T07:31:08.087Z,78.03
2017-01-24T07:32:07.841Z,77.32
2017-01-24T07:33:08.375Z,77.64
2017-01-24T07:34:07.949Z,77.52
2017-01-24T07:35:07.471Z,77.62
2017-01-24T07:36:08.003Z,78.28
2017-01-24T07:37:07.570Z,78.10
2017-01-24T07:38:08.047Z,77.85
2017-01-24T07:39:07.578Z,78.53
2017-01-24T07:40:08.147Z,77.66
2017-01-24T07:41:07.666Z,77.81
2017-01-24T07:42:08.200Z,77.11
2017-01-24T07:43:08.020Z,77.01
2017-01-24T07:44:07.763Z,76.53
2017-01-24T07:45:09.232Z,77.10
2017-01-24T07:46:07.806Z,77.02
2017-01-24T07:47:08.383Z,76.45
2017-01-24T07:48:07.962Z,77.40
2017-01-24T07:50:08.459Z,76.95
2017-01-24T07:51:08.909Z,77.07
2017-01-24T07:52:08.636Z,76.52
2017-01-24T07:53:08.237Z,77.91
2017-01-24T07:55:07.853Z,76.09
2017-01-24T07:56:08.440Z,75.94
2017-01-24T07:57:07.978Z,76.54
2017-01-24T07:58:07.424Z,76.92
2017-01-24T07:59:08.053Z,77.11
2017-01-24T08:00:07.704Z,77.47
2017-01-24T08:01:08.369Z,77.24
2017-01-24T08:02:08.175Z,77.71
2017-01-24T08:03:08.633Z,77.59
2017-01-24T08:04:09.034Z,77.24
2017-01-24T08:05:07.680Z,76.79
2017-01-24T08:06:08.408Z,76.92
2017-01-24T08:07:08.841Z,76.98
2017-01-24T08:08:08.420Z,77.24
2017-01-24T08:09:07.971Z,77.19
2017-01-24T08:10:08.405Z,76.50
2017-01-24T08:11:08.899Z,76.22
2017-01-24T08:12:08.535Z,75.60
2017-01-24T08:13:08.125Z,76.84
2017-01-24T08:14:08.551Z,76.81
2017-01-24T08:15:08.986Z,76.52
2017-01-24T08:16:08.468Z,76.19
2017-01-24T08:17:08.996Z,75.24
2017-01-24T08:18:07.662Z,75.50
2017-01-24T08:19:09.083Z,76.83
2017-01-24T08:20:07.588Z,76.51
2017-01-24T08:21:08.052Z,76.19
2017-01-24T08:22:07.524Z,77.12
2017-01-24T08:23:08.090Z,76.14
2017-01-24T08:24:07.575Z,76.32
2017-01-24T08:25:08.159Z,76.53
2017-01-24T08:26:08.628Z,76.74
2017-01-24T08:27:08.198Z,75.72
2017-01-24T08:28:08.636Z,77.07
2017-01-24T08:29:09.082Z,76.28
2017-01-24T08:30:08.518Z,77.26
2017-01-24T08:31:08.961Z,76.84
2017-01-24T08:32:07.497Z,76.31
2017-01-24T08:33:08.065Z,75.98
2017-01-24T08:34:07.613Z,76.26
2017-01-24T08:35:08.303Z,75.14
2017-01-24T08:36:07.857Z,75.08
2017-01-24T08:37:08.485Z,75.54
2017-01-24T08:38:08.050Z,76.15
2017-01-24T08:39:07.805Z,75.70
2017-01-24T08:40:08.386Z,75.72
2017-01-24T08:41:07.979Z,75.70
2017-01-24T08:42:07.461Z,75.84
2017-01-24T08:43:08.012Z,78.04
2017-01-24T08:44:07.568Z,76.64
2017-01-24T08:45:08.377Z,76.39
2017-01-24T08:46:07.950Z,76.25
2017-01-24T08:47:07.753Z,76.06
2017-01-24T08:48:08.336Z,75.78
2017-01-24T08:49:07.929Z,75.90
2017-01-24T08:50:07.579Z,75.94
2017-01-24T08:51:08.249Z,74.00
2017-01-24T08:52:07.816Z,74.57
2017-01-24T08:53:08.404Z,75.88
2017-01-24T08:54:07.982Z,76.12
2017-01-24T08:55:07.428Z,76.29
2017-01-24T08:56:07.989Z,76.72
2017-01-24T08:57:07.537Z,76.36
2017-01-24T08:58:08.166Z,76.27
2017-01-24T08:59:07.836Z,76.31
2017-01-24T09:00:08.434Z,76.37
2017-01-24T09:01:08.005Z,76.03
2017-01-24T09:02:07.460Z,75.30
2017-01-24T09:03:07.963Z,74.26
2017-01-24T09:04:07.510Z,74.66
2017-01-24T09:05:08.077Z,75.65
2017-01-24T09:06:07.798Z,75.40
2017-01-24T09:07:08.344Z,75.83
2017-01-24T09:08:07.888Z,76.14
2017-01-24T09:09:08.467Z,76.13
2017-01-24T09:10:08.009Z,76.47
2017-01-24T09:11:07.591Z,75.40
2017-01-24T09:12:08.140Z,74.46
2017-01-24T09:13:07.712Z,73.98
2017-01-24T09:14:08.221Z,74.41
2017-01-24T09:15:07.828Z,75.54
2017-01-24T09:16:08.422Z,75.24
2017-01-24T09:17:08.060Z,75.97
2017-01-24T09:18:07.661Z,75.58
2017-01-24T09:19:08.209Z,76.85
2017-01-24T09:20:07.891Z,76.60
2017-01-24T09:21:08.438Z,76.75
2017-01-24T09:22:08.107Z,75.13
2017-01-24T09:23:07.660Z,74.94
2017-01-24T09:24:08.162Z,75.16
2017-01-24T09:25:07.776Z,75.07
2017-01-24T09:26:08.339Z,75.36
2017-01-24T09:27:07.878Z,77.73
2017-01-24T09:28:08.519Z,76.78
2017-01-24T09:29:08.071Z,76.29
2017-01-24T09:30:07.818Z,76.24
2017-01-24T09:31:08.382Z,75.42
2017-01-24T09:32:07.900Z,74.69
2017-01-24T09:33:08.521Z,74.69
2017-01-24T09:34:08.113Z,75.05
2017-01-24T09:35:07.559Z,75.05
2017-01-24T09:36:08.117Z,74.50
2017-01-24T09:37:07.549Z,75.56
2017-01-24T09:38:07.661Z,74.36
2017-01-24T09:39:08.224Z,75.10
2017-01-24T09:40:07.703Z,75.72
2017-01-24T09:41:08.344Z,76.01
2017-01-24T09:42:08.158Z,76.64
2017-01-24T09:43:07.746Z,77.16
2017-01-24T09:44:08.383Z,77.83
2017-01-24T09:45:07.884Z,77.34
2017-01-24T09:46:08.449Z,77.14
2017-01-24T09:47:08.014Z,77.09
2017-01-24T09:48:07.567Z,77.83
2017-01-24T09:49:08.349Z,77.98
2017-01-24T09:50:07.946Z,77.09
2017-01-24T09:51:07.484Z,76.35
2017-01-24T09:52:08.064Z,75.99
2017-01-24T09:53:07.837Z,75.69
2017-01-24T09:54:08.573Z,75.66
2017-01-24T09:55:08.032Z,76.20
2017-01-24T09:56:07.542Z,76.61
2017-01-24T09:57:08.390Z,76.18
2017-01-24T09:58:08.023Z,75.57
2017-01-24T10:00:09.393Z,74.82
2017-01-24T10:01:07.971Z,74.14
2017-01-24T10:02:08.446Z,74.75
2017-01-24T10:03:08.908Z,73.39
2017-01-24T10:04:08.467Z,73.85
2017-01-24T10:05:08.143Z,74.63
2017-01-24T10:06:07.696Z,74.73
2017-01-24T10:07:08.255Z,74.83
2017-01-24T10:08:07.927Z,74.53
2017-01-24T10:09:08.475Z,74.22
2017-01-24T10:10:08.089Z,74.25
2017-01-24T10:11:07.824Z,74.98
2017-01-24T10:12:08.423Z,74.71
2017-01-24T10:13:08.063Z,75.09
2017-01-24T10:14:07.558Z,75.08
2017-01-24T10:15:08.466Z,75.13
2017-01-24T10:16:07.996Z,75.46
2017-01-24T10:17:07.646Z,76.15
2017-01-24T10:18:08.264Z,75.85
2017-01-24T10:19:07.769Z,75.93
2017-01-24T10:20:08.410Z,75.37
2017-01-24T10:21:07.943Z,74.04
2017-01-24T10:22:07.631Z,74.41
2017-01-24T10:23:08.254Z,74.53
2017-01-24T10:24:07.951Z,75.32
2017-01-24T10:25:07.557Z,74.48
2017-01-24T10:26:08.329Z,73.35
2017-01-24T10:27:07.881Z,74.08
2017-01-24T10:28:08.388Z,73.08
2017-01-24T10:29:07.966Z,74.66
2017-01-24T10:30:07.575Z,74.01
2017-01-24T10:31:08.253Z,73.57
2017-01-24T10:32:07.761Z,74.18
2017-01-24T10:33:08.454Z,73.19
2017-01-24T10:34:08.204Z,73.42
2017-01-24T10:35:07.694Z,72.63
2017-01-24T10:36:08.428Z,73.14
2017-01-24T10:37:27.500Z,72.55
2017-01-24T10:38:08.016Z,74.02
2017-01-24T10:39:07.709Z,73.55
2017-01-24T10:40:08.512Z,73.90
2017-01-24T10:41:08.137Z,72.88
2017-01-24T10:42:07.641Z,73.30
2017-01-24T10:43:08.207Z,74.33
2017-01-24T10:44:07.770Z,74.19
2017-01-24T10:45:08.331Z,73.87
2017-01-24T10:46:07.920Z,73.37
2017-01-24T10:47:08.441Z,74.32
2017-01-24T10:48:08.148Z,74.27
2017-01-24T10:49:07.879Z,73.41
2017-01-24T10:50:08.627Z,74.63
2017-01-24T10:51:08.206Z,74.59
2017-01-24T10:52:07.721Z,74.57
2017-01-24T10:53:08.232Z,74.98
2017-01-24T10:54:07.793Z,75.13
2017-01-24T10:55:08.391Z,75.53
2017-01-24T10:56:08.017Z,74.64
2017-01-24T10:57:07.579Z,75.38
2017-01-24T10:58:08.155Z,75.66
2017-01-24T10:59:07.805Z,75.13
2017-01-24T11:00:08.427Z,75.14
2017-01-24T11:01:08.036Z,75.23
2017-01-24T11:02:07.517Z,74.93
2017-01-24T11:03:08.127Z,75.16
2017-01-24T11:04:08.568Z,74.19
2017-01-24T11:05:08.118Z,76.06
2017-01-24T11:06:07.803Z,76.79
2017-01-24T11:07:08.344Z,75.12
2017-01-24T11:08:07.891Z,75.09
2017-01-24T11:09:08.463Z,74.56
2017-01-24T11:10:08.257Z,74.34
2017-01-24T11:11:07.893Z,75.02
2017-01-24T11:12:08.539Z,75.92
2017-01-24T11:13:08.031Z,75.69
2017-01-24T11:14:07.553Z,76.13
2017-01-24T11:15:08.139Z,75.91
2017-01-24T11:16:07.717Z,76.43
2017-01-24T11:17:08.400Z,76.10
2017-01-24T11:18:08.075Z,76.07
2017-01-24T11:19:07.577Z,75.78
2017-01-24T11:20:08.108Z,75.11
2017-01-24T11:21:07.801Z,75.03
2017-01-24T11:22:08.361Z,75.67
2017-01-24T11:23:07.836Z,75.63
2017-01-24T11:24:08.386Z,75.68
2017-01-24T11:25:08.019Z,75.69
2017-01-24T11:26:07.626Z,75.47
2017-01-24T11:27:08.199Z,74.84
2017-01-24T11:28:07.742Z,75.43
2017-01-24T11:29:08.429Z,74.88
2017-01-24T11:30:07.951Z,74.72
2017-01-24T11:31:07.514Z,74.63
2017-01-24T11:32:08.034Z,74.84
2017-01-24T11:33:07.762Z,76.34
2017-01-24T11:34:08.369Z,75.34
2017-01-24T11:35:07.902Z,74.88
2017-01-24T11:36:08.460Z,74.98
2017-01-24T11:37:08.039Z,74.38
2017-01-24T11:38:07.689Z,75.43
2017-01-24T11:39:08.138Z,75.63
2017-01-24T11:40:08.558Z,75.56
2017-01-24T11:41:08.202Z,75.41
2017-01-24T11:42:07.700Z,75.27
2017-01-24T11:43:08.214Z,75.12
2017-01-24T11:44:07.791Z,75.39
2017-01-24T11:45:08.369Z,74.81
2017-01-24T11:46:07.832Z,75.33
2017-01-24T11:47:08.464Z,75.40
2017-01-24T11:48:07.998Z,75.29
2017-01-24T11:49:07.549Z,74.45
2017-01-24T11:50:08.158Z,74.55
2017-01-24T11:51:07.786Z,75.56
2017-01-24T11:52:08.364Z,75.26
2017-01-24T11:53:07.927Z,74.86
2017-01-24T11:54:08.446Z,75.33
2017-01-24T11:55:08.062Z,75.30
2017-01-24T11:56:07.629Z,75.54
2017-01-24T11:57:08.126Z,75.01
2017-01-24T11:58:07.636Z,74.91
2017-01-24T11:59:08.248Z,74.73
2017-01-24T12:00:07.815Z,74.83
2017-01-24T12:01:08.433Z,75.25
2017-01-24T12:02:29.465Z,76.27
2017-01-24T12:03:08.456Z,75.55
2017-01-24T12:04:08.031Z,75.64
2017-01-24T12:05:07.637Z,74.77
2017-01-24T12:06:08.161Z,74.77
2017-01-24T12:07:07.744Z,74.61
2017-01-24T12:08:08.209Z,74.78
2017-01-24T12:09:07.708Z,74.58
2017-01-24T12:10:08.251Z,74.96
2017-01-24T12:11:07.857Z,74.47
2017-01-24T12:12:08.480Z,74.32
2017-01-24T12:13:08.065Z,74.32
2017-01-24T12:14:07.535Z,74.36
2017-01-24T12:15:08.127Z,74.17
2017-01-24T12:16:07.931Z,74.74
2017-01-24T12:17:08.591Z,74.90
2017-01-24T12:18:08.096Z,75.27
2017-01-24T12:19:07.574Z,75.15
2017-01-24T12:20:08.151Z,74.18
2017-01-24T12:21:07.660Z,74.52
2017-01-24T12:22:08.313Z,74.43
2017-01-24T12:23:07.851Z,74.67
2017-01-24T12:24:08.343Z,75.17
2017-01-24T12:25:07.883Z,75.81
2017-01-24T12:26:08.517Z,75.74
2017-01-24T12:27:08.112Z,76.02
2017-01-24T12:28:07.847Z,75.34
2017-01-24T12:29:08.492Z,75.21
2017-01-24T12:30:08.071Z,74.95
2017-01-24T12:31:07.568Z,75.14
2017-01-24T12:32:08.436Z,74.47
2017-01-24T12:33:08.022Z,75.04
2017-01-24T12:34:07.642Z,75.17
2017-01-24T12:35:08.252Z,75.73
2017-01-24T12:36:07.789Z,75.93
2017-01-24T12:37:08.357Z,75.95
2017-01-24T12:38:07.888Z,75.33
2017-01-24T12:39:08.362Z,75.32
2017-01-24T12:40:07.923Z,75.25
2017-01-24T12:41:08.521Z,74.66
2017-01-24T12:42:08.135Z,74.15
2017-01-24T12:43:07.630Z,74.41
2017-01-24T12:44:08.393Z,74.77
2017-01-24T12:45:07.947Z,74.22
2017-01-24T12:46:07.775Z,75.70
2017-01-24T12:47:08.380Z,75.16
2017-01-24T12:48:07.861Z,74.29
2017-01-24T12:49:08.395Z,75.56
2017-01-24T12:50:08.030Z,75.83
2017-01-24T12:51:07.543Z,75.65
2017-01-24T12:52:08.033Z,74.84
2017-01-24T12:53:07.561Z,74.73
2017-01-24T12:54:08.033Z,74.49
2017-01-24T12:55:07.499Z,75.00
2017-01-24T12:56:08.089Z,74.53